sensor_id;sensor_type;location;lat;lon;timestamp;P1;durP1;ratioP1;P2;durP2;ratioP2
79338;SDS011;74181;41.704;44.786;2024-03-02T00:00:10;31.67;;;12.10;;
79338;SDS011;74181;41.704;44.786;2024-03-02T00:02:43;27.92;;;11.57;;
79338;SDS011;74181;41.704;44.786;2024-03-02T00:05:13;27.50;;;11.80;;
79338;SDS011;74181;41.704;44.786;2024-03-02T00:07:59;29.20;;;12.32;;
79338;SDS011;74181;41.704;44.786;2024-03-02T00:10:26;30.35;;;12.10;;
79338;SDS011;74181;41.704;44.786;2024-03-02T00:12:57;25.00;;;11.55;;
79338;SDS011;74181;41.704;44.786;2024-03-02T00:17:59;28.07;;;12.10;;
79338;SDS011;74181;41.704;44.786;2024-03-02T00:20:25;30.38;;;12.60;;
79338;SDS011;74181;41.704;44.786;2024-03-02T00:23:02;28.17;;;12.07;;
79338;SDS011;74181;41.704;44.786;2024-03-02T00:28:22;34.50;;;12.15;;
79338;SDS011;74181;41.704;44.786;2024-03-02T00:33:19;28.45;;;11.35;;
79338;SDS011;74181;41.704;44.786;2024-03-02T00:35:46;27.77;;;12.10;;
79338;SDS011;74181;41.704;44.786;2024-03-02T00:38:12;26.23;;;11.80;;
79338;SDS011;74181;41.704;44.786;2024-03-02T00:40:43;29.42;;;11.95;;
79338;SDS011;74181;41.704;44.786;2024-03-02T00:46:12;26.17;;;11.20;;
79338;SDS011;74181;41.704;44.786;2024-03-02T00:48:48;30.10;;;12.25;;
79338;SDS011;74181;41.704;44.786;2024-03-02T00:51:20;27.45;;;12.23;;
79338;SDS011;74181;41.704;44.786;2024-03-02T00:53:49;27.30;;;11.25;;
79338;SDS011;74181;41.704;44.786;2024-03-02T00:56:19;28.20;;;11.57;;
79338;SDS011;74181;41.704;44.786;2024-03-02T00:58:56;26.40;;;10.98;;
79338;SDS011;74181;41.704;44.786;2024-03-02T01:01:23;27.05;;;11.65;;
79338;SDS011;74181;41.704;44.786;2024-03-02T01:03:50;26.00;;;11.10;;
79338;SDS011;74181;41.704;44.786;2024-03-02T01:06:16;27.05;;;11.57;;
79338;SDS011;74181;41.704;44.786;2024-03-02T01:08:43;28.40;;;11.40;;
79338;SDS011;74181;41.704;44.786;2024-03-02T01:11:10;25.42;;;11.13;;
79338;SDS011;74181;41.704;44.786;2024-03-02T01:13:36;25.80;;;11.32;;
79338;SDS011;74181;41.704;44.786;2024-03-02T01:16:03;23.90;;;10.68;;
79338;SDS011;74181;41.704;44.786;2024-03-02T01:18:29;23.85;;;10.90;;
79338;SDS011;74181;41.704;44.786;2024-03-02T01:20:56;24.90;;;10.70;;
79338;SDS011;74181;41.704;44.786;2024-03-02T01:23:23;23.35;;;10.85;;
79338;SDS011;74181;41.704;44.786;2024-03-02T01:25:50;26.88;;;11.02;;
79338;SDS011;74181;41.704;44.786;2024-03-02T01:28:17;26.38;;;11.25;;
79338;SDS011;74181;41.704;44.786;2024-03-02T01:30:44;27.30;;;12.10;;
79338;SDS011;74181;41.704;44.786;2024-03-02T01:33:11;23.90;;;10.70;;
79338;SDS011;74181;41.704;44.786;2024-03-02T01:35:38;24.77;;;11.07;;
79338;SDS011;74181;41.704;44.786;2024-03-02T01:38:04;22.65;;;10.70;;
79338;SDS011;74181;41.704;44.786;2024-03-02T01:40:36;23.00;;;10.48;;
79338;SDS011;74181;41.704;44.786;2024-03-02T01:43:07;23.10;;;10.98;;
79338;SDS011;74181;41.704;44.786;2024-03-02T01:45:34;25.00;;;10.77;;
79338;SDS011;74181;41.704;44.786;2024-03-02T01:48:01;24.23;;;10.50;;
79338;SDS011;74181;41.704;44.786;2024-03-02T01:50:29;24.83;;;11.38;;
79338;SDS011;74181;41.704;44.786;2024-03-02T01:52:57;26.73;;;11.00;;
79338;SDS011;74181;41.704;44.786;2024-03-02T01:55:23;27.67;;;11.50;;
79338;SDS011;74181;41.704;44.786;2024-03-02T01:57:50;26.67;;;10.80;;
79338;SDS011;74181;41.704;44.786;2024-03-02T02:00:17;28.30;;;11.40;;
79338;SDS011;74181;41.704;44.786;2024-03-02T02:02:44;26.52;;;11.50;;
79338;SDS011;74181;41.704;44.786;2024-03-02T02:05:10;25.42;;;10.98;;
79338;SDS011;74181;41.704;44.786;2024-03-02T02:07:37;27.90;;;11.88;;
79338;SDS011;74181;41.704;44.786;2024-03-02T02:10:03;29.50;;;12.73;;
79338;SDS011;74181;41.704;44.786;2024-03-02T02:12:31;28.02;;;11.27;;
79338;SDS011;74181;41.704;44.786;2024-03-02T02:14:57;30.27;;;12.07;;
79338;SDS011;74181;41.704;44.786;2024-03-02T02:17:24;25.25;;;11.50;;
79338;SDS011;74181;41.704;44.786;2024-03-02T02:19:50;26.42;;;11.48;;
79338;SDS011;74181;41.704;44.786;2024-03-02T02:22:16;27.27;;;11.77;;
79338;SDS011;74181;41.704;44.786;2024-03-02T02:24:42;26.52;;;11.45;;
79338;SDS011;74181;41.704;44.786;2024-03-02T02:27:09;27.63;;;12.27;;
79338;SDS011;74181;41.704;44.786;2024-03-02T02:29:41;24.00;;;11.05;;
79338;SDS011;74181;41.704;44.786;2024-03-02T02:32:07;26.20;;;11.60;;
79338;SDS011;74181;41.704;44.786;2024-03-02T02:34:34;29.23;;;12.37;;
79338;SDS011;74181;41.704;44.786;2024-03-02T02:37:03;27.90;;;11.80;;
79338;SDS011;74181;41.704;44.786;2024-03-02T02:39:29;27.05;;;12.10;;
79338;SDS011;74181;41.704;44.786;2024-03-02T02:41:55;30.48;;;12.00;;
79338;SDS011;74181;41.704;44.786;2024-03-02T02:44:21;25.40;;;11.63;;
79338;SDS011;74181;41.704;44.786;2024-03-02T02:46:47;26.80;;;11.37;;
79338;SDS011;74181;41.704;44.786;2024-03-02T02:49:14;28.10;;;12.30;;
79338;SDS011;74181;41.704;44.786;2024-03-02T02:51:40;26.98;;;12.63;;
79338;SDS011;74181;41.704;44.786;2024-03-02T02:54:06;30.90;;;13.30;;
79338;SDS011;74181;41.704;44.786;2024-03-02T02:56:32;31.20;;;12.80;;
79338;SDS011;74181;41.704;44.786;2024-03-02T02:58:59;28.47;;;12.37;;
79338;SDS011;74181;41.704;44.786;2024-03-02T03:01:25;32.97;;;13.73;;
79338;SDS011;74181;41.704;44.786;2024-03-02T03:03:51;30.52;;;13.02;;
79338;SDS011;74181;41.704;44.786;2024-03-02T03:06:17;29.88;;;13.25;;
79338;SDS011;74181;41.704;44.786;2024-03-02T03:08:44;30.33;;;13.38;;
79338;SDS011;74181;41.704;44.786;2024-03-02T03:11:10;33.37;;;14.30;;
79338;SDS011;74181;41.704;44.786;2024-03-02T03:13:36;34.53;;;14.68;;
79338;SDS011;74181;41.704;44.786;2024-03-02T03:16:02;34.92;;;14.45;;
79338;SDS011;74181;41.704;44.786;2024-03-02T03:18:29;34.75;;;14.52;;
79338;SDS011;74181;41.704;44.786;2024-03-02T03:20:55;32.97;;;13.95;;
79338;SDS011;74181;41.704;44.786;2024-03-02T03:23:21;30.97;;;13.67;;
79338;SDS011;74181;41.704;44.786;2024-03-02T03:25:47;32.15;;;13.70;;
79338;SDS011;74181;41.704;44.786;2024-03-02T03:28:14;33.97;;;14.00;;
79338;SDS011;74181;41.704;44.786;2024-03-02T03:30:40;33.13;;;14.30;;
79338;SDS011;74181;41.704;44.786;2024-03-02T03:33:06;31.58;;;13.85;;
79338;SDS011;74181;41.704;44.786;2024-03-02T03:35:33;37.23;;;14.73;;
79338;SDS011;74181;41.704;44.786;2024-03-02T03:37:59;34.60;;;14.88;;
79338;SDS011;74181;41.704;44.786;2024-03-02T03:40:25;36.22;;;14.23;;
79338;SDS011;74181;41.704;44.786;2024-03-02T03:42:51;30.95;;;13.68;;
79338;SDS011;74181;41.704;44.786;2024-03-02T03:45:19;30.35;;;13.52;;
79338;SDS011;74181;41.704;44.786;2024-03-02T03:47:45;32.03;;;13.37;;
79338;SDS011;74181;41.704;44.786;2024-03-02T03:50:12;31.45;;;12.95;;
79338;SDS011;74181;41.704;44.786;2024-03-02T03:52:38;29.55;;;13.55;;
79338;SDS011;74181;41.704;44.786;2024-03-02T03:55:05;30.48;;;12.93;;
79338;SDS011;74181;41.704;44.786;2024-03-02T03:57:31;29.52;;;12.82;;
79338;SDS011;74181;41.704;44.786;2024-03-02T03:59:57;33.60;;;12.87;;
79338;SDS011;74181;41.704;44.786;2024-03-02T04:02:23;31.85;;;12.90;;
79338;SDS011;74181;41.704;44.786;2024-03-02T04:04:50;27.52;;;12.30;;
79338;SDS011;74181;41.704;44.786;2024-03-02T04:07:16;26.42;;;11.77;;
79338;SDS011;74181;41.704;44.786;2024-03-02T04:09:43;30.13;;;11.77;;
79338;SDS011;74181;41.704;44.786;2024-03-02T04:12:09;30.80;;;12.30;;
79338;SDS011;74181;41.704;44.786;2024-03-02T04:14:35;29.52;;;11.70;;
79338;SDS011;74181;41.704;44.786;2024-03-02T04:17:03;27.23;;;11.57;;
79338;SDS011;74181;41.704;44.786;2024-03-02T04:19:29;27.02;;;11.07;;
79338;SDS011;74181;41.704;44.786;2024-03-02T04:21:56;27.90;;;11.18;;
79338;SDS011;74181;41.704;44.786;2024-03-02T04:24:22;26.60;;;11.00;;
79338;SDS011;74181;41.704;44.786;2024-03-02T04:26:48;26.45;;;11.00;;
79338;SDS011;74181;41.704;44.786;2024-03-02T04:29:14;25.83;;;11.15;;
79338;SDS011;74181;41.704;44.786;2024-03-02T04:31:40;26.85;;;11.07;;
79338;SDS011;74181;41.704;44.786;2024-03-02T04:34:06;25.30;;;11.35;;
79338;SDS011;74181;41.704;44.786;2024-03-02T04:36:32;23.20;;;10.90;;
79338;SDS011;74181;41.704;44.786;2024-03-02T04:38:59;25.05;;;11.07;;
79338;SDS011;74181;41.704;44.786;2024-03-02T04:41:25;24.83;;;10.50;;
79338;SDS011;74181;41.704;44.786;2024-03-02T04:43:51;25.33;;;10.52;;
79338;SDS011;74181;41.704;44.786;2024-03-02T04:46:18;25.17;;;10.77;;
79338;SDS011;74181;41.704;44.786;2024-03-02T04:48:44;24.93;;;10.80;;
79338;SDS011;74181;41.704;44.786;2024-03-02T04:51:10;23.58;;;11.18;;
79338;SDS011;74181;41.704;44.786;2024-03-02T04:53:36;25.80;;;11.02;;
79338;SDS011;74181;41.704;44.786;2024-03-02T04:56:04;22.88;;;10.40;;
79338;SDS011;74181;41.704;44.786;2024-03-02T04:59:04;23.98;;;10.98;;
79338;SDS011;74181;41.704;44.786;2024-03-02T05:01:32;25.13;;;10.90;;
79338;SDS011;74181;41.704;44.786;2024-03-02T05:03:59;26.42;;;11.57;;
79338;SDS011;74181;41.704;44.786;2024-03-02T05:06:25;30.38;;;12.50;;
79338;SDS011;74181;41.704;44.786;2024-03-02T05:08:51;28.00;;;12.32;;
79338;SDS011;74181;41.704;44.786;2024-03-02T05:11:17;25.95;;;11.80;;
79338;SDS011;74181;41.704;44.786;2024-03-02T05:14:05;28.27;;;11.17;;
79338;SDS011;74181;41.704;44.786;2024-03-02T05:16:35;26.45;;;11.57;;
79338;SDS011;74181;41.704;44.786;2024-03-02T05:19:04;25.90;;;11.73;;
79338;SDS011;74181;41.704;44.786;2024-03-02T05:21:32;27.35;;;11.73;;
79338;SDS011;74181;41.704;44.786;2024-03-02T05:23:59;25.70;;;12.10;;
79338;SDS011;74181;41.704;44.786;2024-03-02T05:26:25;29.47;;;12.37;;
79338;SDS011;74181;41.704;44.786;2024-03-02T05:28:52;29.27;;;11.95;;
79338;SDS011;74181;41.704;44.786;2024-03-02T05:31:18;29.80;;;12.43;;
79338;SDS011;74181;41.704;44.786;2024-03-02T05:33:45;30.77;;;12.73;;
79338;SDS011;74181;41.704;44.786;2024-03-02T05:36:11;31.90;;;13.45;;
79338;SDS011;74181;41.704;44.786;2024-03-02T05:38:41;31.23;;;12.60;;
79338;SDS011;74181;41.704;44.786;2024-03-02T05:41:08;32.85;;;13.63;;
79338;SDS011;74181;41.704;44.786;2024-03-02T05:43:34;33.65;;;14.80;;
79338;SDS011;74181;41.704;44.786;2024-03-02T05:46:00;33.30;;;14.05;;
79338;SDS011;74181;41.704;44.786;2024-03-02T05:48:26;34.17;;;13.90;;
79338;SDS011;74181;41.704;44.786;2024-03-02T05:50:53;36.77;;;14.60;;
79338;SDS011;74181;41.704;44.786;2024-03-02T05:53:19;31.25;;;14.00;;
79338;SDS011;74181;41.704;44.786;2024-03-02T05:55:45;34.70;;;14.55;;
79338;SDS011;74181;41.704;44.786;2024-03-02T05:58:11;34.55;;;14.38;;
79338;SDS011;74181;41.704;44.786;2024-03-02T06:01:00;33.63;;;14.18;;
79338;SDS011;74181;41.704;44.786;2024-03-02T06:03:27;36.80;;;15.07;;
79338;SDS011;74181;41.704;44.786;2024-03-02T06:05:54;34.03;;;14.15;;
79338;SDS011;74181;41.704;44.786;2024-03-02T06:08:20;34.33;;;14.90;;
79338;SDS011;74181;41.704;44.786;2024-03-02T06:10:47;35.78;;;14.57;;
79338;SDS011;74181;41.704;44.786;2024-03-02T06:13:13;41.80;;;14.88;;
79338;SDS011;74181;41.704;44.786;2024-03-02T06:15:39;35.73;;;14.67;;
79338;SDS011;74181;41.704;44.786;2024-03-02T06:18:06;32.90;;;13.60;;
79338;SDS011;74181;41.704;44.786;2024-03-02T06:20:33;32.72;;;13.95;;
79338;SDS011;74181;41.704;44.786;2024-03-02T06:22:59;30.08;;;13.45;;
79338;SDS011;74181;41.704;44.786;2024-03-02T06:25:25;29.35;;;13.30;;
79338;SDS011;74181;41.704;44.786;2024-03-02T06:27:52;34.00;;;13.23;;
79338;SDS011;74181;41.704;44.786;2024-03-02T06:30:18;30.75;;;13.95;;
79338;SDS011;74181;41.704;44.786;2024-03-02T06:32:44;31.50;;;14.13;;
79338;SDS011;74181;41.704;44.786;2024-03-02T06:35:11;25.65;;;12.13;;
79338;SDS011;74181;41.704;44.786;2024-03-02T06:37:38;30.80;;;13.70;;
79338;SDS011;74181;41.704;44.786;2024-03-02T06:40:06;33.53;;;13.50;;
79338;SDS011;74181;41.704;44.786;2024-03-02T06:42:39;36.10;;;14.13;;
79338;SDS011;74181;41.704;44.786;2024-03-02T06:45:05;31.02;;;13.43;;
79338;SDS011;74181;41.704;44.786;2024-03-02T06:47:32;28.33;;;13.35;;
79338;SDS011;74181;41.704;44.786;2024-03-02T06:49:58;32.58;;;13.68;;
79338;SDS011;74181;41.704;44.786;2024-03-02T06:52:24;31.17;;;13.47;;
79338;SDS011;74181;41.704;44.786;2024-03-02T06:54:50;30.00;;;13.68;;
79338;SDS011;74181;41.704;44.786;2024-03-02T06:57:16;28.98;;;12.90;;
79338;SDS011;74181;41.704;44.786;2024-03-02T06:59:43;33.08;;;14.15;;
79338;SDS011;74181;41.704;44.786;2024-03-02T07:02:09;29.17;;;12.73;;
79338;SDS011;74181;41.704;44.786;2024-03-02T07:04:35;27.20;;;12.07;;
79338;SDS011;74181;41.704;44.786;2024-03-02T07:07:01;29.73;;;12.43;;
79338;SDS011;74181;41.704;44.786;2024-03-02T07:09:28;29.08;;;12.25;;
79338;SDS011;74181;41.704;44.786;2024-03-02T07:11:54;26.05;;;12.18;;
79338;SDS011;74181;41.704;44.786;2024-03-02T07:14:20;29.20;;;12.27;;
79338;SDS011;74181;41.704;44.786;2024-03-02T07:16:47;31.23;;;13.17;;
79338;SDS011;74181;41.704;44.786;2024-03-02T07:19:14;27.77;;;12.02;;
79338;SDS011;74181;41.704;44.786;2024-03-02T07:21:40;29.48;;;12.75;;
79338;SDS011;74181;41.704;44.786;2024-03-02T07:24:09;28.02;;;12.20;;
79338;SDS011;74181;41.704;44.786;2024-03-02T07:26:39;28.30;;;13.00;;
79338;SDS011;74181;41.704;44.786;2024-03-02T07:29:08;28.63;;;12.27;;
79338;SDS011;74181;41.704;44.786;2024-03-02T07:31:35;30.10;;;13.82;;
79338;SDS011;74181;41.704;44.786;2024-03-02T07:34:01;32.75;;;14.15;;
79338;SDS011;74181;41.704;44.786;2024-03-02T07:36:27;32.08;;;13.20;;
79338;SDS011;74181;41.704;44.786;2024-03-02T07:38:53;31.30;;;13.70;;
79338;SDS011;74181;41.704;44.786;2024-03-02T07:41:20;34.67;;;13.53;;
79338;SDS011;74181;41.704;44.786;2024-03-02T07:43:47;33.03;;;12.90;;
79338;SDS011;74181;41.704;44.786;2024-03-02T07:46:17;32.10;;;13.70;;
79338;SDS011;74181;41.704;44.786;2024-03-02T07:49:01;35.45;;;14.18;;
79338;SDS011;74181;41.704;44.786;2024-03-02T07:51:29;34.95;;;14.23;;
79338;SDS011;74181;41.704;44.786;2024-03-02T07:53:59;29.33;;;12.80;;
79338;SDS011;74181;41.704;44.786;2024-03-02T07:56:26;29.98;;;13.30;;
79338;SDS011;74181;41.704;44.786;2024-03-02T07:58:59;32.83;;;14.13;;
79338;SDS011;74181;41.704;44.786;2024-03-02T08:01:31;31.98;;;14.50;;
79338;SDS011;74181;41.704;44.786;2024-03-02T08:04:01;33.47;;;13.85;;
79338;SDS011;74181;41.704;44.786;2024-03-02T08:06:31;31.60;;;13.50;;
79338;SDS011;74181;41.704;44.786;2024-03-02T08:09:01;33.05;;;14.13;;
79338;SDS011;74181;41.704;44.786;2024-03-02T08:11:58;31.08;;;14.73;;
79338;SDS011;74181;41.704;44.786;2024-03-02T08:15:27;31.67;;;14.20;;
79338;SDS011;74181;41.704;44.786;2024-03-02T08:17:54;28.77;;;13.40;;
79338;SDS011;74181;41.704;44.786;2024-03-02T08:20:22;34.77;;;14.47;;
79338;SDS011;74181;41.704;44.786;2024-03-02T08:22:52;31.42;;;13.70;;
79338;SDS011;74181;41.704;44.786;2024-03-02T08:25:21;32.80;;;14.57;;
79338;SDS011;74181;41.704;44.786;2024-03-02T08:27:48;31.95;;;13.80;;
79338;SDS011;74181;41.704;44.786;2024-03-02T08:30:14;35.17;;;14.52;;
79338;SDS011;74181;41.704;44.786;2024-03-02T08:32:40;31.70;;;14.20;;
79338;SDS011;74181;41.704;44.786;2024-03-02T08:35:07;41.70;;;18.60;;
79338;SDS011;74181;41.704;44.786;2024-03-02T08:37:34;35.30;;;15.43;;
79338;SDS011;74181;41.704;44.786;2024-03-02T08:40:00;32.47;;;14.70;;
79338;SDS011;74181;41.704;44.786;2024-03-02T08:42:29;36.60;;;15.50;;
79338;SDS011;74181;41.704;44.786;2024-03-02T08:44:55;30.73;;;14.17;;
79338;SDS011;74181;41.704;44.786;2024-03-02T08:47:22;37.17;;;15.38;;
79338;SDS011;74181;41.704;44.786;2024-03-02T08:49:48;35.80;;;14.30;;
79338;SDS011;74181;41.704;44.786;2024-03-02T08:52:15;34.38;;;14.80;;
79338;SDS011;74181;41.704;44.786;2024-03-02T08:54:41;34.55;;;14.52;;
79338;SDS011;74181;41.704;44.786;2024-03-02T08:57:07;32.83;;;15.00;;
79338;SDS011;74181;41.704;44.786;2024-03-02T08:59:33;35.30;;;15.40;;
79338;SDS011;74181;41.704;44.786;2024-03-02T09:01:59;32.05;;;14.30;;
79338;SDS011;74181;41.704;44.786;2024-03-02T09:04:25;41.15;;;15.45;;
79338;SDS011;74181;41.704;44.786;2024-03-02T09:06:52;34.42;;;14.43;;
79338;SDS011;74181;41.704;44.786;2024-03-02T09:09:18;36.33;;;15.27;;
79338;SDS011;74181;41.704;44.786;2024-03-02T09:11:45;34.55;;;14.60;;
79338;SDS011;74181;41.704;44.786;2024-03-02T09:14:12;32.88;;;14.52;;
79338;SDS011;74181;41.704;44.786;2024-03-02T09:16:40;33.63;;;14.55;;
79338;SDS011;74181;41.704;44.786;2024-03-02T09:19:06;32.22;;;14.13;;
79338;SDS011;74181;41.704;44.786;2024-03-02T09:21:33;35.50;;;14.73;;
79338;SDS011;74181;41.704;44.786;2024-03-02T09:24:00;37.38;;;14.30;;
79338;SDS011;74181;41.704;44.786;2024-03-02T09:26:28;31.20;;;13.88;;
79338;SDS011;74181;41.704;44.786;2024-03-02T09:28:54;33.45;;;14.18;;
79338;SDS011;74181;41.704;44.786;2024-03-02T09:31:20;35.38;;;14.45;;
79338;SDS011;74181;41.704;44.786;2024-03-02T09:33:46;33.00;;;14.27;;
79338;SDS011;74181;41.704;44.786;2024-03-02T09:36:16;33.70;;;14.75;;
79338;SDS011;74181;41.704;44.786;2024-03-02T09:38:46;35.42;;;15.20;;
79338;SDS011;74181;41.704;44.786;2024-03-02T09:41:14;32.55;;;13.95;;
79338;SDS011;74181;41.704;44.786;2024-03-02T09:43:40;33.35;;;14.35;;
79338;SDS011;74181;41.704;44.786;2024-03-02T09:46:08;30.50;;;14.17;;
79338;SDS011;74181;41.704;44.786;2024-03-02T09:48:35;30.70;;;14.07;;
79338;SDS011;74181;41.704;44.786;2024-03-02T09:51:01;31.20;;;14.63;;
79338;SDS011;74181;41.704;44.786;2024-03-02T09:53:31;31.88;;;14.52;;
79338;SDS011;74181;41.704;44.786;2024-03-02T09:56:01;35.28;;;14.85;;
79338;SDS011;74181;41.704;44.786;2024-03-02T09:58:27;32.93;;;15.00;;
79338;SDS011;74181;41.704;44.786;2024-03-02T10:00:54;37.90;;;15.85;;
79338;SDS011;74181;41.704;44.786;2024-03-02T10:03:20;35.67;;;15.93;;
79338;SDS011;74181;41.704;44.786;2024-03-02T10:05:48;35.55;;;15.60;;
79338;SDS011;74181;41.704;44.786;2024-03-02T10:08:14;34.03;;;15.55;;
79338;SDS011;74181;41.704;44.786;2024-03-02T10:10:41;34.97;;;16.03;;
79338;SDS011;74181;41.704;44.786;2024-03-02T10:13:10;37.35;;;15.05;;
79338;SDS011;74181;41.704;44.786;2024-03-02T10:15:38;38.40;;;15.50;;
79338;SDS011;74181;41.704;44.786;2024-03-02T10:18:09;35.70;;;16.38;;
79338;SDS011;74181;41.704;44.786;2024-03-02T10:20:37;41.38;;;15.18;;
79338;SDS011;74181;41.704;44.786;2024-03-02T10:23:14;34.10;;;16.17;;
79338;SDS011;74181;41.704;44.786;2024-03-02T10:25:42;36.20;;;15.77;;
79338;SDS011;74181;41.704;44.786;2024-03-02T10:28:09;35.67;;;15.18;;
79338;SDS011;74181;41.704;44.786;2024-03-02T10:30:35;34.13;;;15.77;;
79338;SDS011;74181;41.704;44.786;2024-03-02T10:33:02;35.08;;;15.23;;
79338;SDS011;74181;41.704;44.786;2024-03-02T10:35:28;36.60;;;16.10;;
79338;SDS011;74181;41.704;44.786;2024-03-02T10:38:00;38.13;;;16.65;;
79338;SDS011;74181;41.704;44.786;2024-03-02T10:40:29;37.25;;;16.08;;
79338;SDS011;74181;41.704;44.786;2024-03-02T10:42:55;34.63;;;15.48;;
79338;SDS011;74181;41.704;44.786;2024-03-02T10:45:22;33.60;;;15.75;;
79338;SDS011;74181;41.704;44.786;2024-03-02T10:47:49;32.33;;;14.93;;
79338;SDS011;74181;41.704;44.786;2024-03-02T10:50:16;38.83;;;17.17;;
79338;SDS011;74181;41.704;44.786;2024-03-02T10:52:42;35.78;;;16.08;;
79338;SDS011;74181;41.704;44.786;2024-03-02T10:55:09;34.78;;;16.33;;
79338;SDS011;74181;41.704;44.786;2024-03-02T10:57:45;38.90;;;18.40;;
79338;SDS011;74181;41.704;44.786;2024-03-02T11:00:19;35.73;;;16.87;;
79338;SDS011;74181;41.704;44.786;2024-03-02T11:02:51;40.92;;;17.10;;
79338;SDS011;74181;41.704;44.786;2024-03-02T11:05:21;34.63;;;16.20;;
79338;SDS011;74181;41.704;44.786;2024-03-02T11:07:53;35.47;;;15.52;;
79338;SDS011;74181;41.704;44.786;2024-03-02T11:10:23;36.15;;;15.60;;
79338;SDS011;74181;41.704;44.786;2024-03-02T11:12:53;34.37;;;15.93;;
79338;SDS011;74181;41.704;44.786;2024-03-02T11:15:22;40.65;;;16.65;;
79338;SDS011;74181;41.704;44.786;2024-03-02T11:17:52;37.25;;;16.52;;
79338;SDS011;74181;41.704;44.786;2024-03-02T11:20:19;39.72;;;16.27;;
79338;SDS011;74181;41.704;44.786;2024-03-02T11:22:45;37.35;;;15.80;;
79338;SDS011;74181;41.704;44.786;2024-03-02T11:25:25;37.60;;;16.77;;
79338;SDS011;74181;41.704;44.786;2024-03-02T11:33:00;36.95;;;16.30;;
79338;SDS011;74181;41.704;44.786;2024-03-02T11:35:37;39.65;;;15.98;;
79338;SDS011;74181;41.704;44.786;2024-03-02T11:38:09;36.50;;;15.67;;
79338;SDS011;74181;41.704;44.786;2024-03-02T11:40:35;32.85;;;15.70;;
79338;SDS011;74181;41.704;44.786;2024-03-02T11:43:02;34.85;;;16.40;;
79338;SDS011;74181;41.704;44.786;2024-03-02T11:45:28;35.78;;;16.38;;
79338;SDS011;74181;41.704;44.786;2024-03-02T11:47:59;41.95;;;18.33;;
79338;SDS011;74181;41.704;44.786;2024-03-02T11:53:15;40.80;;;17.80;;
79338;SDS011;74181;41.704;44.786;2024-03-02T11:55:42;43.78;;;19.00;;
79338;SDS011;74181;41.704;44.786;2024-03-02T11:58:12;37.72;;;17.70;;
79338;SDS011;74181;41.704;44.786;2024-03-02T12:00:38;42.78;;;18.83;;
79338;SDS011;74181;41.704;44.786;2024-03-02T12:03:06;51.60;;;18.93;;
79338;SDS011;74181;41.704;44.786;2024-03-02T12:05:33;41.80;;;18.00;;
79338;SDS011;74181;41.704;44.786;2024-03-02T12:08:01;44.20;;;18.88;;
79338;SDS011;74181;41.704;44.786;2024-03-02T12:10:29;40.65;;;17.63;;
79338;SDS011;74181;41.704;44.786;2024-03-02T12:12:58;62.05;;;24.88;;
79338;SDS011;74181;41.704;44.786;2024-03-02T12:15:33;40.20;;;16.70;;
79338;SDS011;74181;41.704;44.786;2024-03-02T12:18:02;36.17;;;16.23;;
79338;SDS011;74181;41.704;44.786;2024-03-02T12:20:29;35.28;;;16.42;;
79338;SDS011;74181;41.704;44.786;2024-03-02T12:23:00;35.78;;;16.65;;
79338;SDS011;74181;41.704;44.786;2024-03-02T12:25:28;36.08;;;16.55;;
79338;SDS011;74181;41.704;44.786;2024-03-02T12:27:55;33.73;;;16.03;;
79338;SDS011;74181;41.704;44.786;2024-03-02T12:30:22;40.75;;;16.80;;
79338;SDS011;74181;41.704;44.786;2024-03-02T12:32:49;38.50;;;16.88;;
79338;SDS011;74181;41.704;44.786;2024-03-02T12:35:15;36.60;;;15.68;;
79338;SDS011;74181;41.704;44.786;2024-03-02T12:37:45;38.05;;;15.48;;
79338;SDS011;74181;41.704;44.786;2024-03-02T12:40:12;41.37;;;17.60;;
79338;SDS011;74181;41.704;44.786;2024-03-02T12:42:39;39.00;;;16.63;;
79338;SDS011;74181;41.704;44.786;2024-03-02T12:45:07;38.88;;;18.08;;
79338;SDS011;74181;41.704;44.786;2024-03-02T12:47:34;40.90;;;17.20;;
79338;SDS011;74181;41.704;44.786;2024-03-02T12:50:01;59.03;;;28.00;;
79338;SDS011;74181;41.704;44.786;2024-03-02T12:52:29;43.20;;;17.83;;
79338;SDS011;74181;41.704;44.786;2024-03-02T12:55:01;43.42;;;17.35;;
79338;SDS011;74181;41.704;44.786;2024-03-02T12:57:31;37.42;;;16.30;;
79338;SDS011;74181;41.704;44.786;2024-03-02T13:02:35;37.20;;;17.17;;
79338;SDS011;74181;41.704;44.786;2024-03-02T13:05:02;37.03;;;16.47;;
79338;SDS011;74181;41.704;44.786;2024-03-02T13:07:30;36.78;;;16.02;;
79338;SDS011;74181;41.704;44.786;2024-03-02T13:10:00;37.20;;;16.92;;
79338;SDS011;74181;41.704;44.786;2024-03-02T13:12:26;39.25;;;18.15;;
79338;SDS011;74181;41.704;44.786;2024-03-02T13:14:53;38.13;;;16.95;;
79338;SDS011;74181;41.704;44.786;2024-03-02T13:17:23;38.53;;;16.63;;
79338;SDS011;74181;41.704;44.786;2024-03-02T13:19:56;37.95;;;16.00;;
79338;SDS011;74181;41.704;44.786;2024-03-02T13:22:23;38.60;;;17.23;;
79338;SDS011;74181;41.704;44.786;2024-03-02T13:24:50;43.92;;;20.15;;
79338;SDS011;74181;41.704;44.786;2024-03-02T13:27:17;37.20;;;16.50;;
79338;SDS011;74181;41.704;44.786;2024-03-02T13:29:46;35.17;;;16.20;;
79338;SDS011;74181;41.704;44.786;2024-03-02T13:32:14;39.10;;;17.02;;
79338;SDS011;74181;41.704;44.786;2024-03-02T13:34:46;37.55;;;17.55;;
79338;SDS011;74181;41.704;44.786;2024-03-02T13:37:12;37.80;;;15.82;;
79338;SDS011;74181;41.704;44.786;2024-03-02T13:39:38;40.25;;;16.10;;
79338;SDS011;74181;41.704;44.786;2024-03-02T13:42:09;36.97;;;16.37;;
79338;SDS011;74181;41.704;44.786;2024-03-02T13:44:36;37.45;;;16.15;;
79338;SDS011;74181;41.704;44.786;2024-03-02T13:47:03;37.42;;;15.98;;
79338;SDS011;74181;41.704;44.786;2024-03-02T13:49:30;35.88;;;17.13;;
79338;SDS011;74181;41.704;44.786;2024-03-02T13:52:05;37.22;;;16.55;;
79338;SDS011;74181;41.704;44.786;2024-03-02T13:54:39;38.77;;;17.03;;
79338;SDS011;74181;41.704;44.786;2024-03-02T13:57:07;36.35;;;16.20;;
79338;SDS011;74181;41.704;44.786;2024-03-02T13:59:34;39.83;;;17.10;;
79338;SDS011;74181;41.704;44.786;2024-03-02T14:02:01;34.53;;;16.23;;
79338;SDS011;74181;41.704;44.786;2024-03-02T14:04:33;38.20;;;16.42;;
79338;SDS011;74181;41.704;44.786;2024-03-02T14:07:02;36.30;;;15.87;;
79338;SDS011;74181;41.704;44.786;2024-03-02T14:09:29;34.72;;;15.70;;
79338;SDS011;74181;41.704;44.786;2024-03-02T14:11:55;37.58;;;16.00;;
79338;SDS011;74181;41.704;44.786;2024-03-02T14:14:22;36.38;;;16.15;;
79338;SDS011;74181;41.704;44.786;2024-03-02T14:16:49;40.53;;;17.17;;
79338;SDS011;74181;41.704;44.786;2024-03-02T14:19:15;36.17;;;16.67;;
79338;SDS011;74181;41.704;44.786;2024-03-02T14:21:42;35.90;;;16.13;;
79338;SDS011;74181;41.704;44.786;2024-03-02T14:24:08;36.25;;;16.42;;
79338;SDS011;74181;41.704;44.786;2024-03-02T14:26:35;37.63;;;16.45;;
79338;SDS011;74181;41.704;44.786;2024-03-02T14:29:02;39.50;;;17.20;;
79338;SDS011;74181;41.704;44.786;2024-03-02T14:31:29;37.83;;;16.77;;
79338;SDS011;74181;41.704;44.786;2024-03-02T14:33:57;37.15;;;16.95;;